createdAt,value
2018-09-01T00:00:11.596Z,2.50
2018-09-01T00:01:11.574Z,2.60
2018-09-01T00:02:11.577Z,2.80
2018-09-01T00:03:11.571Z,2.50
2018-09-01T00:04:11.579Z,2.60
2018-09-01T00:05:11.583Z,2.40
2018-09-01T00:06:11.568Z,2.10
2018-09-01T00:07:11.569Z,2.40
2018-09-01T00:08:11.576Z,2.40
2018-09-01T00:09:11.561Z,2.10
2018-09-01T00:10:11.558Z,2.50
2018-09-01T00:11:11.581Z,2.50
2018-09-01T00:12:11.569Z,2.50
2018-09-01T00:13:11.547Z,2.50
2018-09-01T00:14:11.536Z,2.70
2018-09-01T00:15:11.553Z,2.50
2018-09-01T00:16:11.541Z,2.40
2018-09-01T00:17:11.539Z,2.70
2018-09-01T00:18:11.537Z,2.50
2018-09-01T00:19:11.540Z,2.30
2018-09-01T00:20:11.539Z,2.00
2018-09-01T00:21:11.537Z,2.60
2018-09-01T00:22:11.533Z,2.40
2018-09-01T00:23:11.524Z,3.10
2018-09-01T00:24:11.527Z,2.50
2018-09-01T00:25:11.525Z,2.90
2018-09-01T00:26:11.516Z,2.60
2018-09-01T00:27:11.520Z,2.20
2018-09-01T00:28:11.520Z,2.40
2018-09-01T00:29:11.509Z,2.40
2018-09-01T00:30:11.500Z,2.80
2018-09-01T00:31:11.520Z,2.40
2018-09-01T00:32:11.499Z,2.10
2018-09-01T00:33:11.491Z,2.20
2018-09-01T00:34:11.500Z,2.50
2018-09-01T00:35:11.505Z,2.60
2018-09-01T00:36:11.491Z,2.50
2018-09-01T00:37:11.486Z,2.60
2018-09-01T00:38:11.485Z,2.70
2018-09-01T00:39:11.492Z,2.00
2018-09-01T00:40:11.484Z,2.30
2018-09-01T00:41:11.485Z,2.30
2018-09-01T00:42:11.486Z,2.40
2018-09-01T00:43:11.470Z,2.80
2018-09-01T00:44:11.464Z,2.70
2018-09-01T00:45:11.467Z,2.50
2018-09-01T00:46:11.474Z,2.40
2018-09-01T00:47:11.456Z,3.00
2018-09-01T00:48:11.452Z,2.60
2018-09-01T00:49:11.457Z,2.40
2018-09-01T00:50:11.449Z,2.80
2018-09-01T00:51:11.450Z,2.70
2018-09-01T00:52:11.460Z,2.90
2018-09-01T00:53:11.456Z,2.80
2018-09-01T00:54:11.442Z,3.00
2018-09-01T00:55:11.444Z,2.60
2018-09-01T00:56:11.439Z,2.70
2018-09-01T00:57:11.426Z,2.90
2018-09-01T00:58:11.426Z,2.80
2018-09-01T00:59:11.427Z,2.60
2018-09-01T01:00:11.425Z,2.70
2018-09-01T01:01:11.417Z,2.50
2018-09-01T01:02:11.417Z,2.50
2018-09-01T01:03:11.420Z,2.60
2018-09-01T01:04:11.411Z,2.90
2018-09-01T01:05:11.410Z,2.50
2018-09-01T01:06:11.407Z,2.40
2018-09-01T01:07:11.396Z,2.50
2018-09-01T01:08:11.391Z,2.40
2018-09-01T01:09:11.401Z,2.60
2018-09-01T01:10:11.393Z,2.40
2018-09-01T01:11:11.384Z,2.40
2018-09-01T01:12:11.395Z,2.50
2018-09-01T01:13:11.392Z,2.60
2018-09-01T01:14:11.375Z,2.50
2018-09-01T01:15:11.384Z,2.50
2018-09-01T01:16:11.395Z,2.60
2018-09-01T01:17:11.368Z,2.70
2018-09-01T01:18:11.365Z,2.60
2018-09-01T01:19:11.380Z,2.50
2018-09-01T01:20:11.375Z,2.90
2018-09-01T01:21:11.346Z,2.50
2018-09-01T01:22:11.363Z,2.40
2018-09-01T01:23:11.350Z,2.70
2018-09-01T01:24:11.350Z,2.70
2018-09-01T01:25:11.346Z,2.70
2018-09-01T01:26:11.353Z,2.50
2018-09-01T01:27:11.337Z,2.20
2018-09-01T01:28:11.366Z,2.40
2018-09-01T01:29:11.338Z,2.70
2018-09-01T01:30:11.321Z,2.30
2018-09-01T01:31:11.324Z,2.20
2018-09-01T01:32:11.328Z,2.50
2018-09-01T01:33:11.318Z,2.60
2018-09-01T01:34:11.317Z,2.70
2018-09-01T01:35:11.315Z,2.70
2018-09-01T01:36:11.300Z,3.00
2018-09-01T01:37:11.326Z,2.30
2018-09-01T01:38:11.309Z,2.50
2018-09-01T01:39:11.292Z,2.60
2018-09-01T01:40:11.294Z,2.50
2018-09-01T01:41:11.300Z,2.70
2018-09-01T01:42:11.280Z,2.70
2018-09-01T01:43:11.279Z,2.80
2018-09-01T01:44:11.290Z,2.70
2018-09-01T01:45:11.281Z,2.50
2018-09-01T01:46:11.281Z,2.40
2018-09-01T01:47:11.284Z,2.80
2018-09-01T01:48:11.261Z,2.30
2018-09-01T01:49:11.261Z,2.60
2018-09-01T01:50:11.269Z,2.50
2018-09-01T01:51:11.252Z,2.90
2018-09-01T01:52:11.254Z,2.40
2018-09-01T01:53:11.262Z,2.60
2018-09-01T01:54:11.268Z,2.80
2018-09-01T01:55:11.247Z,2.80
2018-09-01T01:56:11.250Z,2.70
2018-09-01T01:57:11.238Z,2.80
2018-09-01T01:58:11.240Z,2.50
2018-09-01T01:59:11.236Z,2.40
2018-09-01T02:00:11.239Z,2.60
2018-09-01T02:01:11.226Z,2.80
2018-09-01T02:02:11.227Z,2.40
2018-09-01T02:03:11.223Z,2.80
2018-09-01T02:04:11.218Z,2.90
2018-09-01T02:05:11.208Z,2.50
2018-09-01T02:06:11.204Z,2.30
2018-09-01T02:07:11.204Z,2.50
2018-09-01T02:08:11.215Z,3.10
2018-09-01T02:09:11.200Z,2.40
2018-09-01T02:10:11.201Z,2.90
2018-09-01T02:11:11.195Z,2.80
2018-09-01T02:12:11.183Z,2.70
2018-09-01T02:13:11.183Z,2.70
2018-09-01T02:14:11.173Z,3.10
2018-09-01T02:15:11.183Z,2.80
2018-09-01T02:16:11.184Z,2.60
2018-09-01T02:17:11.159Z,2.50
2018-09-01T02:18:11.163Z,2.90
2018-09-01T02:19:11.183Z,2.60
2018-09-01T02:20:11.154Z,2.40
2018-09-01T02:21:11.153Z,2.70
2018-09-01T02:22:11.146Z,2.40
2018-09-01T02:23:11.146Z,2.70
2018-09-01T02:24:11.150Z,3.00
2018-09-01T02:25:11.137Z,3.40
2018-09-01T02:26:11.137Z,2.60
2018-09-01T02:27:11.136Z,3.00
2018-09-01T02:28:11.142Z,3.00
2018-09-01T02:29:11.129Z,2.80
2018-09-01T02:30:11.120Z,2.80
2018-09-01T02:31:11.121Z,2.90
2018-09-01T02:32:11.108Z,3.00
2018-09-01T02:33:11.107Z,2.90
2018-09-01T02:34:11.107Z,3.10
2018-09-01T02:35:11.105Z,2.90
2018-09-01T02:36:11.097Z,2.80
2018-09-01T02:37:11.106Z,3.20
2018-09-01T02:38:11.100Z,3.10
2018-09-01T02:39:11.100Z,3.50
2018-09-01T02:40:11.092Z,3.10
2018-09-01T02:41:11.076Z,3.00
2018-09-01T02:42:11.071Z,3.10
2018-09-01T02:43:11.080Z,2.70
2018-09-01T02:44:11.061Z,3.00
2018-09-01T02:45:11.068Z,3.00
2018-09-01T02:46:11.067Z,3.30
2018-09-01T02:47:11.056Z,3.10
2018-09-01T02:48:11.055Z,3.20
2018-09-01T02:49:11.046Z,3.10
2018-09-01T02:50:11.050Z,3.30
2018-09-01T02:51:11.049Z,3.20
2018-09-01T02:52:11.038Z,3.10
2018-09-01T02:53:11.040Z,3.20
2018-09-01T02:54:11.038Z,2.90
2018-09-01T02:55:11.029Z,3.00
2018-09-01T02:56:11.027Z,3.20
2018-09-01T02:57:11.027Z,3.30
2018-09-01T02:58:11.016Z,3.20
2018-09-01T02:59:11.013Z,3.40
2018-09-01T03:00:11.005Z,3.40
2018-09-01T03:01:10.996Z,3.40
2018-09-01T03:02:11.034Z,3.40
2018-09-01T03:03:10.992Z,3.40
2018-09-01T03:04:10.988Z,3.40
2018-09-01T03:05:10.986Z,3.40
2018-09-01T03:06:10.987Z,3.30
2018-09-01T03:07:10.988Z,3.50
2018-09-01T03:08:10.980Z,3.20
2018-09-01T03:09:10.982Z,3.10
2018-09-01T03:10:10.978Z,3.30
2018-09-01T03:11:10.979Z,3.40
2018-09-01T03:12:10.964Z,3.00
2018-09-01T03:13:10.952Z,3.80
2018-09-01T03:14:10.954Z,3.60
2018-09-01T03:15:10.955Z,4.00
2018-09-01T03:16:10.951Z,3.30
2018-09-01T03:17:10.944Z,3.80
2018-09-01T03:18:10.939Z,3.20
2018-09-01T03:19:10.940Z,3.30
2018-09-01T03:20:10.936Z,3.30
2018-09-01T03:21:10.930Z,3.50
2018-09-01T03:22:10.929Z,3.70
2018-09-01T03:23:10.934Z,3.70
2018-09-01T03:24:10.912Z,3.40
2018-09-01T03:25:10.919Z,4.00
2018-09-01T03:26:10.919Z,4.30
2018-09-01T03:27:10.910Z,3.90
2018-09-01T03:28:10.908Z,4.20
2018-09-01T03:29:10.890Z,3.70
2018-09-01T03:30:10.901Z,3.90
2018-09-01T03:31:10.899Z,3.50
2018-09-01T03:32:10.896Z,3.70
2018-09-01T03:33:10.883Z,3.90
2018-09-01T03:34:10.880Z,3.90
2018-09-01T03:35:10.878Z,4.20
2018-09-01T03:36:10.869Z,4.10
2018-09-01T03:37:10.867Z,3.70
2018-09-01T03:38:10.870Z,3.60
2018-09-01T03:39:10.866Z,3.50
2018-09-01T03:40:10.857Z,3.80
2018-09-01T03:41:10.846Z,3.90
2018-09-01T03:42:10.851Z,3.90
2018-09-01T03:43:10.851Z,4.00
2018-09-01T03:44:10.844Z,4.00
2018-09-01T03:45:10.841Z,3.80
2018-09-01T03:46:10.836Z,3.60
2018-09-01T03:47:10.834Z,4.00
2018-09-01T03:48:10.830Z,4.00
2018-09-01T03:49:10.819Z,4.20
2018-09-01T03:50:10.813Z,4.30
2018-09-01T03:51:10.811Z,4.10
2018-09-01T03:52:10.820Z,3.80
2018-09-01T03:53:10.805Z,3.70
2018-09-01T03:54:10.795Z,4.00
2018-09-01T03:55:10.803Z,4.00
2018-09-01T03:56:10.794Z,4.20
2018-09-01T03:57:10.796Z,3.90
2018-09-01T03:58:10.776Z,4.50
2018-09-01T03:59:10.795Z,4.20
2018-09-01T04:00:10.777Z,4.40
2018-09-01T04:01:10.768Z,4.60
2018-09-01T04:02:10.769Z,3.60
2018-09-01T04:03:10.750Z,3.90
2018-09-01T04:04:10.754Z,4.10
2018-09-01T04:05:10.757Z,4.50
2018-09-01T04:06:10.755Z,4.30
2018-09-01T04:07:10.738Z,3.90
2018-09-01T04:08:10.734Z,4.20
2018-09-01T04:09:10.755Z,4.00
2018-09-01T04:10:10.729Z,3.80
2018-09-01T04:11:10.732Z,4.40
2018-09-01T04:12:10.735Z,4.00
2018-09-01T04:13:10.721Z,4.10
2018-09-01T04:14:10.722Z,4.10
2018-09-01T04:15:10.721Z,4.50
2018-09-01T04:16:10.712Z,4.30
2018-09-01T04:17:10.701Z,4.10
2018-09-01T04:18:10.696Z,4.00
2018-09-01T04:19:10.701Z,4.80
2018-09-01T04:20:10.698Z,4.00
2018-09-01T04:21:10.686Z,4.60
2018-09-01T04:22:10.696Z,4.70
2018-09-01T04:23:10.676Z,4.20
2018-09-01T04:24:10.677Z,4.80
2018-09-01T04:25:10.665Z,4.10
2018-09-01T04:26:10.669Z,4.80
2018-09-01T04:27:10.671Z,4.70
2018-09-01T04:28:10.661Z,5.00
2018-09-01T04:29:10.648Z,4.30
2018-09-01T04:30:10.644Z,4.60
2018-09-01T04:31:10.653Z,4.20
2018-09-01T04:32:10.658Z,4.60
2018-09-01T04:33:10.641Z,4.00
2018-09-01T04:34:10.632Z,4.50
2018-09-01T04:35:10.623Z,4.70
2018-09-01T04:36:10.627Z,4.90
2018-09-01T04:37:10.613Z,5.10
2018-09-01T04:38:10.619Z,4.60
2018-09-01T04:39:10.626Z,4.70
2018-09-01T04:40:10.605Z,4.10
2018-09-01T04:41:10.609Z,4.50
2018-09-01T04:42:10.593Z,4.60
2018-09-01T04:43:10.596Z,4.90
2018-09-01T04:44:10.588Z,4.50
2018-09-01T04:45:10.592Z,4.50
2018-09-01T04:46:10.587Z,4.70
2018-09-01T04:47:10.593Z,5.00
2018-09-01T04:48:10.581Z,4.60
2018-09-01T04:49:10.570Z,4.80
2018-09-01T04:50:10.565Z,4.40
2018-09-01T04:51:10.558Z,4.60
2018-09-01T04:52:10.559Z,4.70
2018-09-01T04:53:10.560Z,5.10
2018-09-01T04:54:10.547Z,4.70
2018-09-01T04:55:10.553Z,5.00
2018-09-01T04:56:10.536Z,4.20
2018-09-01T04:57:10.543Z,5.00
2018-09-01T04:58:10.542Z,4.60
2018-09-01T04:59:10.524Z,5.00
2018-09-01T05:00:10.538Z,4.60
2018-09-01T05:01:10.680Z,4.90
2018-09-01T05:02:10.517Z,4.90
2018-09-01T05:03:10.503Z,5.10
2018-09-01T05:04:10.507Z,4.80
2018-09-01T05:05:10.512Z,4.70
2018-09-01T05:06:10.499Z,4.70
2018-09-01T05:07:10.505Z,4.60
2018-09-01T05:08:10.488Z,4.90
2018-09-01T05:09:10.489Z,5.10
2018-09-01T05:10:10.481Z,5.20
2018-09-01T05:11:10.489Z,5.30
2018-09-01T05:12:10.484Z,5.50
2018-09-01T05:13:10.468Z,5.60
2018-09-01T05:14:10.467Z,5.00
2018-09-01T05:15:10.464Z,4.90
2018-09-01T05:16:10.451Z,5.90
2018-09-01T05:17:10.451Z,5.60
2018-09-01T05:18:10.451Z,5.70
2018-09-01T05:19:10.447Z,5.30
2018-09-01T05:20:10.429Z,5.70
2018-09-01T05:21:10.430Z,5.10
2018-09-01T05:22:10.427Z,4.90
2018-09-01T05:23:10.433Z,5.20
2018-09-01T05:24:10.416Z,4.80
2018-09-01T05:25:10.414Z,4.60
2018-09-01T05:26:10.416Z,5.30
2018-09-01T05:27:10.408Z,4.80
2018-09-01T05:28:10.407Z,5.10
2018-09-01T05:29:10.394Z,5.40
2018-09-01T05:30:10.394Z,5.20
2018-09-01T05:31:10.387Z,4.90
2018-09-01T05:32:10.392Z,4.60
2018-09-01T05:33:10.376Z,4.80
2018-09-01T05:34:10.379Z,4.70
2018-09-01T05:35:10.374Z,5.00
2018-09-01T05:36:10.373Z,5.20
2018-09-01T05:37:10.371Z,5.00
2018-09-01T05:38:10.356Z,4.80
2018-09-01T05:39:10.363Z,4.90
2018-09-01T05:40:10.352Z,4.70
2018-09-01T05:41:10.349Z,4.80
2018-09-01T05:42:10.344Z,5.10
2018-09-01T05:43:10.333Z,4.60
2018-09-01T05:44:10.327Z,4.70
2018-09-01T05:45:10.325Z,4.70
2018-09-01T05:46:10.259Z,5.60
2018-09-01T05:47:10.291Z,5.70
2018-09-01T05:48:10.248Z,5.50
2018-09-01T05:49:10.246Z,5.40
2018-09-01T05:50:10.229Z,5.70
2018-09-01T05:51:10.236Z,5.40
2018-09-01T05:52:10.237Z,5.10
2018-09-01T05:53:10.224Z,5.30
2018-09-01T05:54:10.221Z,5.30
2018-09-01T05:55:10.232Z,5.10
2018-09-01T05:56:10.219Z,5.60
2018-09-01T05:57:10.282Z,5.60
2018-09-01T05:58:10.206Z,5.20
2018-09-01T05:59:10.263Z,5.80
2018-09-01T06:00:10.195Z,5.20
2018-09-01T06:01:10.256Z,5.20
2018-09-01T06:02:10.180Z,5.70
2018-09-01T06:03:10.193Z,5.70
2018-09-01T06:04:10.185Z,6.10
2018-09-01T06:05:10.179Z,5.40
2018-09-01T06:06:10.328Z,5.20
2018-09-01T06:07:10.176Z,5.60
2018-09-01T06:08:10.230Z,5.60
2018-09-01T06:09:10.170Z,6.20
2018-09-01T06:10:10.160Z,5.60
2018-09-01T06:11:10.166Z,6.10
2018-09-01T06:12:10.220Z,5.70
2018-09-01T06:13:10.138Z,5.80
2018-09-01T06:14:10.137Z,6.20
2018-09-01T06:15:10.213Z,5.80
2018-09-01T06:16:10.141Z,5.70
2018-09-01T06:17:10.105Z,5.30
2018-09-01T06:18:10.187Z,6.00
2018-09-01T06:19:10.151Z,5.50
2018-09-01T06:20:10.143Z,5.80
2018-09-01T06:21:10.121Z,6.30
2018-09-01T06:22:10.129Z,6.10
2018-09-01T06:23:10.108Z,6.10
2018-09-01T06:24:10.111Z,5.90
2018-09-01T06:25:10.105Z,5.80
2018-09-01T06:26:10.168Z,5.30
2018-09-01T06:27:10.162Z,5.90
2018-09-01T06:28:10.085Z,5.60
2018-09-01T06:29:10.150Z,6.20
2018-09-01T06:30:10.126Z,6.30
2018-09-01T06:31:10.070Z,5.30
2018-09-01T06:32:10.062Z,5.90
2018-09-01T06:33:10.070Z,5.60
2018-09-01T06:34:10.055Z,5.50
2018-09-01T06:35:10.109Z,5.80
2018-09-01T06:36:10.047Z,5.40
2018-09-01T06:37:10.067Z,6.20
2018-09-01T06:38:10.112Z,5.80
2018-09-01T06:39:10.045Z,6.00
2018-09-01T06:40:10.032Z,5.40
2018-09-01T06:41:10.037Z,5.80
2018-09-01T06:42:10.103Z,5.50
2018-09-01T06:43:10.085Z,5.80
2018-09-01T06:44:10.050Z,5.40
2018-09-01T06:45:10.067Z,5.30
2018-09-01T06:46:10.077Z,5.10
2018-09-01T06:47:10.084Z,4.70
2018-09-01T06:48:10.066Z,4.70
2018-09-01T06:49:09.987Z,4.80
2018-09-01T06:50:10.008Z,4.70
2018-09-01T06:51:09.988Z,5.10
2018-09-01T06:52:10.062Z,5.00
2018-09-01T06:53:10.050Z,4.60
2018-09-01T06:54:10.049Z,5.10
2018-09-01T06:55:10.064Z,5.00
2018-09-01T06:56:10.037Z,4.60
2018-09-01T06:57:10.047Z,4.70
2018-09-01T06:58:09.973Z,4.60
2018-09-01T06:59:10.027Z,4.20
2018-09-01T07:00:10.035Z,3.90
2018-09-01T07:01:09.967Z,4.10
2018-09-01T07:02:10.014Z,3.70
2018-09-01T07:03:10.013Z,4.40
2018-09-01T07:04:09.944Z,4.10
2018-09-01T07:05:09.996Z,4.10
2018-09-01T07:06:09.922Z,3.90
2018-09-01T07:07:09.931Z,3.80
2018-09-01T07:08:10.914Z,3.50
2018-09-01T07:09:09.935Z,3.50
2018-09-01T07:10:09.922Z,3.70
2018-09-01T07:11:09.977Z,3.60
2018-09-01T07:12:09.919Z,3.30
2018-09-01T07:13:09.924Z,3.50
2018-09-01T07:14:09.927Z,3.10
2018-09-01T07:15:09.897Z,3.80
2018-09-01T07:16:09.901Z,3.60
2018-09-01T07:17:09.929Z,3.30
2018-09-01T07:18:09.880Z,3.60
2018-09-01T07:19:09.898Z,3.40
2018-09-01T07:20:09.877Z,3.20
2018-09-01T07:21:09.879Z,3.40
2018-09-01T07:22:09.888Z,3.30
2018-09-01T07:23:09.867Z,3.30
2018-09-01T07:24:09.877Z,4.00
2018-09-01T07:25:09.877Z,3.20
2018-09-01T07:26:09.857Z,2.70
2018-09-01T07:27:09.857Z,3.20
2018-09-01T07:28:09.858Z,3.40
2018-09-01T07:29:09.877Z,3.20
2018-09-01T07:30:09.986Z,3.40
2018-09-01T07:31:10.120Z,3.20
2018-09-01T07:32:09.847Z,3.30
2018-09-01T07:33:09.839Z,3.20
2018-09-01T07:34:09.844Z,3.50
2018-09-01T07:35:09.840Z,3.50
2018-09-01T07:36:09.850Z,3.40
2018-09-01T07:37:09.917Z,3.80
2018-09-01T07:38:09.820Z,3.30
2018-09-01T07:39:09.823Z,3.20
2018-09-01T07:40:09.828Z,3.10
2018-09-01T07:41:09.800Z,2.90
2018-09-01T07:42:09.839Z,3.20
2018-09-01T07:43:09.983Z,3.20
2018-09-01T07:44:09.818Z,3.00
2018-09-01T07:45:09.817Z,3.20
2018-09-01T07:46:09.798Z,2.80
2018-09-01T07:47:09.794Z,3.20
2018-09-01T07:48:09.797Z,3.10
2018-09-01T07:49:09.856Z,2.90
2018-09-01T07:50:09.836Z,3.00
2018-09-01T07:51:09.849Z,2.60
2018-09-01T07:52:09.860Z,2.60
2018-09-01T07:53:09.781Z,2.80
2018-09-01T07:54:09.835Z,2.90
2018-09-01T07:55:10.240Z,2.90
2018-09-01T07:56:09.898Z,2.60
2018-09-01T07:57:09.831Z,2.60
2018-09-01T07:58:09.832Z,2.70
2018-09-01T07:59:09.770Z,2.90
2018-09-01T08:00:09.755Z,3.10
2018-09-01T08:01:09.780Z,2.50
2018-09-01T08:02:09.821Z,2.60
2018-09-01T08:03:09.823Z,2.60
2018-09-01T08:04:09.826Z,2.80
2018-09-01T08:05:09.816Z,2.90
2018-09-01T08:06:09.806Z,3.00
2018-09-01T08:07:09.814Z,2.50
2018-09-01T08:08:09.727Z,2.80
2018-09-01T08:09:09.739Z,2.60
2018-09-01T08:10:09.721Z,2.30
2018-09-01T08:11:09.727Z,2.70
2018-09-01T08:12:09.728Z,2.60
2018-09-01T08:13:09.743Z,2.20
2018-09-01T08:14:09.819Z,2.40
2018-09-01T08:15:09.729Z,2.40
2018-09-01T08:16:09.728Z,2.30
2018-09-01T08:17:09.719Z,2.30
2018-09-01T08:18:09.724Z,2.80
2018-09-01T08:19:09.698Z,2.00
2018-09-01T08:20:09.693Z,2.20
2018-09-01T08:21:09.711Z,2.10
2018-09-01T08:22:09.706Z,2.10
2018-09-01T08:23:09.682Z,2.00
2018-09-01T08:24:09.687Z,2.40
2018-09-01T08:25:09.689Z,2.30
2018-09-01T08:26:09.716Z,2.40
2018-09-01T08:27:09.689Z,2.40
2018-09-01T08:28:09.752Z,2.10
2018-09-01T08:29:09.683Z,2.20
2018-09-01T08:30:09.694Z,1.80
2018-09-01T08:31:09.690Z,1.80
2018-09-01T08:32:09.669Z,1.70
2018-09-01T08:33:09.664Z,1.70
2018-09-01T08:34:09.673Z,2.00
2018-09-01T08:35:09.672Z,2.00
2018-09-01T08:36:09.672Z,1.70
2018-09-01T08:37:09.667Z,1.80
2018-09-01T08:38:09.666Z,1.80
2018-09-01T08:39:09.671Z,2.10
2018-09-01T08:40:09.737Z,1.70
2018-09-01T08:41:09.732Z,2.20
2018-09-01T08:42:09.720Z,2.10
2018-09-01T08:43:09.712Z,2.00
2018-09-01T08:44:09.643Z,1.80
2018-09-01T08:45:09.736Z,1.80
2018-09-01T08:46:09.645Z,1.70
2018-09-01T08:47:09.715Z,1.80
2018-09-01T08:48:09.627Z,1.70
2018-09-01T08:49:09.630Z,1.90
2018-09-01T08:50:09.642Z,1.90
2018-09-01T08:51:09.637Z,1.60
2018-09-01T08:52:09.632Z,2.00
2018-09-01T08:53:09.626Z,2.10
2018-09-01T08:54:09.688Z,2.10
2018-09-01T08:55:09.614Z,2.00
2018-09-01T08:56:09.607Z,2.00
2018-09-01T08:57:09.636Z,1.90
2018-09-01T08:58:09.606Z,1.80
2018-09-01T08:59:09.649Z,2.30
2018-09-01T09:00:09.688Z,1.70
2018-09-01T09:01:09.607Z,1.90
2018-09-01T09:02:09.617Z,1.90
2018-09-01T09:03:09.608Z,1.80
2018-09-01T09:04:09.600Z,1.60
2018-09-01T09:05:09.617Z,1.90
2018-09-01T09:06:09.602Z,1.80
2018-09-01T09:07:09.608Z,1.90
2018-09-01T09:08:09.593Z,1.70
2018-09-01T09:09:09.568Z,2.20
2018-09-01T09:10:09.614Z,1.70
2018-09-01T09:11:09.595Z,1.60
2018-09-01T09:12:09.621Z,1.70
2018-09-01T09:13:09.597Z,1.70
2018-09-01T09:14:09.596Z,2.00
2018-09-01T09:15:09.579Z,1.70
2018-09-01T09:16:09.585Z,2.00
2018-09-01T09:17:09.581Z,1.60
2018-09-01T09:18:09.648Z,1.70
2018-09-01T09:19:09.644Z,1.70
2018-09-01T09:20:09.646Z,1.60
2018-09-01T09:21:09.577Z,1.80
2018-09-01T09:22:09.574Z,1.80
2018-09-01T09:23:09.576Z,1.50
2018-09-01T09:24:09.564Z,2.00
2018-09-01T09:25:09.561Z,1.80
2018-09-01T09:26:09.581Z,1.90
2018-09-01T09:27:09.561Z,1.50
2018-09-01T09:28:09.556Z,2.00
2018-09-01T09:29:09.562Z,2.00
2018-09-01T09:30:09.557Z,1.60
2018-09-01T09:31:09.565Z,1.60
2018-09-01T09:32:09.630Z,1.70
2018-09-01T09:33:09.678Z,1.80
2018-09-01T09:34:09.607Z,1.70
2018-09-01T09:35:09.535Z,1.70
2018-09-01T09:36:09.673Z,1.50
2018-09-01T09:37:09.596Z,1.40
2018-09-01T09:38:09.590Z,1.60
2018-09-01T09:39:09.619Z,1.60
2018-09-01T09:40:09.523Z,2.10
2018-09-01T09:41:09.597Z,1.90
2018-09-01T09:42:09.602Z,1.70
2018-09-01T09:43:09.585Z,2.30
2018-09-01T09:44:09.526Z,2.70
2018-09-01T09:45:09.601Z,3.10
2018-09-01T09:46:09.593Z,2.40
2018-09-01T09:47:09.518Z,2.30
2018-09-01T09:48:09.595Z,2.20
2018-09-01T09:49:09.591Z,1.80
2018-09-01T09:50:09.602Z,2.10
2018-09-01T09:51:09.589Z,2.10
2018-09-01T09:52:09.581Z,1.90
2018-09-01T09:53:09.614Z,1.70
2018-09-01T09:54:09.576Z,1.70
2018-09-01T09:55:09.578Z,1.90
2018-09-01T09:56:09.586Z,1.80
2018-09-01T09:57:09.585Z,1.50
2018-09-01T09:58:09.582Z,1.60
2018-09-01T09:59:09.574Z,1.80
2018-09-01T10:00:09.568Z,2.10
2018-09-01T10:01:09.648Z,1.80
2018-09-01T10:02:09.575Z,1.70
2018-09-01T10:03:09.571Z,1.60
2018-09-01T10:04:09.567Z,2.30
2018-09-01T10:05:09.527Z,1.90
2018-09-01T10:06:09.499Z,1.90
2018-09-01T10:07:09.497Z,1.90
2018-09-01T10:08:09.503Z,2.00
2018-09-01T10:09:09.496Z,1.70
2018-09-01T10:10:09.571Z,1.80
2018-09-01T10:11:09.517Z,2.20
2018-09-01T10:12:09.514Z,1.60
2018-09-01T10:13:09.483Z,2.00
2018-09-01T10:14:09.555Z,3.40
2018-09-01T10:15:09.556Z,2.00
2018-09-01T10:16:09.478Z,1.80
2018-09-01T10:17:09.559Z,1.80
2018-09-01T10:18:09.560Z,1.80
2018-09-01T10:19:09.637Z,1.90
2018-09-01T10:20:09.912Z,1.80
2018-09-01T10:21:09.475Z,2.00
2018-09-01T10:22:09.470Z,1.80
2018-09-01T10:23:09.481Z,1.70
2018-09-01T10:24:10.556Z,2.00
2018-09-01T10:25:09.491Z,1.90
2018-09-01T10:26:09.529Z,1.70
2018-09-01T10:27:09.623Z,1.70
2018-09-01T10:28:09.621Z,1.50
2018-09-01T10:29:09.568Z,1.60
2018-09-01T10:30:09.627Z,1.80
2018-09-01T10:31:09.816Z,1.80
2018-09-01T10:32:09.502Z,2.00
2018-09-01T10:33:09.600Z,1.70
2018-09-01T10:34:09.622Z,1.70
2018-09-01T10:35:09.477Z,1.90
2018-09-01T10:36:09.548Z,1.80
2018-09-01T10:37:09.478Z,1.80
2018-09-01T10:38:09.461Z,1.60
2018-09-01T10:39:09.454Z,1.80
2018-09-01T10:40:09.536Z,1.80
2018-09-01T10:41:09.460Z,1.70
2018-09-01T10:42:09.455Z,2.00
2018-09-01T10:43:09.466Z,1.50
2018-09-01T10:44:09.466Z,1.80
2018-09-01T10:45:09.456Z,1.70
2018-09-01T10:46:09.468Z,1.60
2018-09-01T10:47:09.466Z,1.70
2018-09-01T10:48:09.470Z,1.80
2018-09-01T10:49:09.452Z,1.50
2018-09-01T10:50:09.460Z,2.00
2018-09-01T10:51:09.466Z,1.80
2018-09-01T10:52:09.471Z,1.50
2018-09-01T10:53:09.725Z,1.70
2018-09-01T10:54:09.472Z,1.80
2018-09-01T10:55:09.459Z,1.60
2018-09-01T10:56:09.469Z,2.10
2018-09-01T10:57:09.461Z,2.10
2018-09-01T10:58:09.472Z,1.80
2018-09-01T10:59:09.570Z,1.80
2018-09-01T11:00:09.463Z,2.30
2018-09-01T11:01:09.474Z,1.90
2018-09-01T11:02:09.470Z,1.70
2018-09-01T11:03:09.462Z,2.00
2018-09-01T11:04:09.458Z,1.60
2018-09-01T11:05:09.583Z,1.70
2018-09-01T11:06:09.469Z,1.80
2018-09-01T11:07:09.480Z,1.70
2018-09-01T11:08:09.460Z,2.20
2018-09-01T11:09:09.466Z,1.90
2018-09-01T11:10:09.465Z,2.00
2018-09-01T11:11:09.493Z,2.20
2018-09-01T11:12:09.464Z,1.90
2018-09-01T11:13:09.459Z,1.70
2018-09-01T11:14:09.934Z,1.80
2018-09-01T11:15:09.475Z,1.80
2018-09-01T11:16:34.934Z,2.90
2018-09-01T11:17:34.926Z,2.70
2018-09-01T11:19:29.599Z,1.40
2018-09-01T11:20:29.575Z,1.70
2018-09-01T11:22:24.304Z,3.00
2018-09-01T11:23:24.274Z,2.10
2018-09-01T11:25:18.445Z,1.90
2018-09-01T11:26:18.447Z,2.20
2018-09-01T11:28:12.779Z,1.90
2018-09-01T11:29:12.624Z,2.30
2018-09-01T11:31:07.299Z,1.90
2018-09-01T11:32:07.319Z,1.60
2018-09-01T11:34:02.057Z,1.80
2018-09-01T11:35:01.983Z,1.80
2018-09-01T11:36:56.723Z,2.00
2018-09-01T11:37:56.649Z,1.60
2018-09-01T11:39:50.932Z,1.90
2018-09-01T11:40:50.827Z,1.60
2018-09-01T11:42:45.241Z,1.80
2018-09-01T11:43:45.013Z,2.20
2018-09-01T11:45:39.258Z,1.70
2018-09-01T11:46:39.212Z,1.40
2018-09-01T11:48:33.440Z,1.70
2018-09-01T11:49:33.403Z,1.50
2018-09-01T11:51:28.108Z,1.70
2018-09-01T11:52:28.071Z,1.80
2018-09-01T11:54:22.308Z,1.70
2018-09-01T11:55:22.263Z,1.70
2018-09-01T11:57:17.023Z,1.80
2018-09-01T11:58:16.944Z,1.80
2018-09-01T12:00:11.145Z,1.50
2018-09-01T12:01:11.286Z,1.60
2018-09-01T12:03:05.883Z,57.60
2018-09-01T12:04:05.823Z,29.20
2018-09-01T12:06:00.006Z,94.70
2018-09-01T12:07:00.011Z,104.50
2018-09-01T12:08:54.278Z,3.90
2018-09-01T12:09:54.214Z,4.20
2018-09-01T12:11:48.388Z,7.90
2018-09-01T12:12:48.377Z,6.40
2018-09-01T12:14:42.626Z,2.70
2018-09-01T12:15:42.647Z,3.00
2018-09-01T12:17:36.746Z,3.90
2018-09-01T12:18:36.757Z,3.60
2018-09-01T12:20:30.980Z,3.40
2018-09-01T12:21:30.935Z,2.20
2018-09-01T12:23:25.624Z,2.40
2018-09-01T12:24:25.634Z,2.20
2018-09-01T12:26:19.846Z,3.30
2018-09-01T12:27:19.794Z,3.00
2018-09-01T12:29:13.981Z,2.90
2018-09-01T12:30:13.986Z,2.00
2018-09-01T12:32:08.179Z,2.30
2018-09-01T12:33:08.174Z,2.40
2018-09-01T12:35:02.346Z,2.00
2018-09-01T12:36:02.366Z,2.00
2018-09-01T12:37:56.601Z,4.40
2018-09-01T12:38:56.592Z,2.40
2018-09-01T12:40:50.754Z,1.70
2018-09-01T12:41:50.748Z,1.80
2018-09-01T12:43:44.997Z,1.60
2018-09-01T12:44:44.942Z,1.60
2018-09-01T12:46:39.142Z,1.60
2018-09-01T12:47:39.139Z,1.70
2018-09-01T12:49:33.453Z,2.00
2018-09-01T12:50:33.410Z,1.60
2018-09-01T12:52:28.045Z,1.70
2018-09-01T12:53:28.042Z,1.70
2018-09-01T12:55:22.329Z,1.80
2018-09-01T12:56:22.279Z,1.70
2018-09-01T12:58:16.460Z,1.60
2018-09-01T12:59:16.466Z,1.70
2018-09-01T13:01:10.687Z,1.60
2018-09-01T13:02:10.681Z,1.90
2018-09-01T13:04:04.847Z,1.80
2018-09-01T13:06:19.613Z,1.50
2018-09-01T13:07:19.557Z,1.40
2018-09-01T13:09:14.589Z,1.70
2018-09-01T13:10:13.804Z,1.70
2018-09-01T13:12:08.042Z,1.60
2018-09-01T13:13:08.004Z,1.70
2018-09-01T13:15:02.196Z,1.80
2018-09-01T13:16:02.185Z,1.60
2018-09-01T13:17:56.424Z,1.60
2018-09-01T13:18:56.426Z,1.60
2018-09-01T13:20:50.583Z,1.50
2018-09-01T13:21:50.601Z,1.60
2018-09-01T13:23:44.836Z,1.60
2018-09-01T13:24:44.818Z,1.50
2018-09-01T13:26:39.567Z,1.30
2018-09-01T13:27:39.580Z,1.40
2018-09-01T13:29:33.752Z,1.70
2018-09-01T13:30:33.783Z,1.50
2018-09-01T13:32:27.963Z,1.60
2018-09-01T13:33:27.912Z,1.50
2018-09-01T13:35:22.225Z,1.40
2018-09-01T13:36:22.199Z,1.40
2018-09-01T13:38:16.407Z,1.50
2018-09-01T13:39:16.422Z,1.50
2018-09-01T13:41:10.588Z,1.60
2018-09-01T13:42:10.541Z,1.40
2018-09-01T13:44:04.755Z,2.00
2018-09-01T13:45:04.812Z,1.80
2018-09-01T13:46:59.519Z,1.50
2018-09-01T13:47:59.448Z,1.60
2018-09-01T13:49:53.666Z,1.70
2018-09-01T13:50:53.673Z,1.50
2018-09-01T13:52:47.974Z,1.60
2018-09-01T13:53:48.017Z,1.50
2018-09-01T13:55:42.099Z,2.30
2018-09-01T13:56:42.125Z,1.30
2018-09-01T13:58:36.400Z,1.50
2018-09-01T13:59:36.332Z,1.50
2018-09-01T14:01:30.591Z,1.60
2018-09-01T14:02:30.751Z,1.50
2018-09-01T14:04:25.312Z,1.60
2018-09-01T14:05:25.236Z,1.50
2018-09-01T14:07:19.466Z,1.40
2018-09-01T14:08:19.551Z,1.40
2018-09-01T14:10:14.217Z,1.60
2018-09-01T14:11:14.168Z,1.70
2018-09-01T14:13:08.867Z,2.30
2018-09-01T14:14:08.871Z,2.10